createdAt,value
2023-05-07T00:01:45.990Z,2.28
2023-05-07T00:04:12.786Z,1.73
2023-05-07T00:06:40.725Z,2.05
2023-05-07T00:09:08.049Z,1.92
2023-05-07T00:11:37.176Z,1.70
2023-05-07T00:14:04.161Z,2.00
2023-05-07T00:16:30.800Z,2.25
2023-05-07T00:18:57.818Z,2.65
2023-05-07T00:21:27.446Z,2.40
2023-05-07T00:23:55.047Z,2.00
2023-05-07T00:26:22.043Z,2.22
2023-05-07T00:28:50.660Z,1.92
2023-05-07T00:31:17.335Z,2.35
2023-05-07T00:33:44.032Z,2.20
2023-05-07T00:36:10.734Z,2.08
2023-05-07T00:38:37.378Z,2.33
2023-05-07T00:41:03.975Z,2.22
2023-05-07T00:43:30.735Z,1.85
2023-05-07T00:45:57.682Z,2.17
2023-05-07T00:48:25.480Z,1.95
2023-05-07T00:50:52.534Z,2.20
2023-05-07T00:53:19.229Z,2.65
2023-05-07T00:55:46.052Z,1.77
2023-05-07T00:58:13.027Z,2.03
2023-05-07T01:00:39.597Z,2.10
2023-05-07T01:03:06.716Z,2.55
2023-05-07T01:05:34.310Z,2.47
2023-05-07T01:08:02.123Z,2.13
2023-05-07T01:10:31.455Z,2.15
2023-05-07T01:12:59.973Z,2.95
2023-05-07T01:15:26.832Z,2.25
2023-05-07T01:17:54.241Z,2.15
2023-05-07T01:20:29.285Z,2.55
2023-05-07T01:22:58.335Z,1.67
2023-05-07T01:25:25.672Z,2.05
2023-05-07T01:27:56.604Z,1.88
2023-05-07T01:30:28.472Z,2.50
2023-05-07T01:33:05.265Z,2.10
2023-05-07T01:35:38.610Z,2.13
2023-05-07T01:38:07.190Z,1.90
2023-05-07T01:40:35.462Z,2.10
2023-05-07T01:43:03.950Z,2.10
2023-05-07T01:45:32.766Z,1.88
2023-05-07T01:48:00.504Z,2.55
2023-05-07T01:50:28.189Z,1.77
2023-05-07T01:52:55.194Z,2.22
2023-05-07T01:55:21.863Z,2.00
2023-05-07T01:57:48.631Z,2.22
2023-05-07T02:00:15.564Z,2.38
2023-05-07T02:02:42.435Z,2.10
2023-05-07T02:05:18.562Z,2.38
2023-05-07T02:07:48.608Z,2.38
2023-05-07T02:10:16.760Z,2.42
2023-05-07T02:12:43.735Z,2.17
2023-05-07T02:15:11.291Z,2.65
2023-05-07T02:17:59.506Z,2.45
2023-05-07T02:20:26.325Z,2.83
2023-05-07T02:22:52.884Z,2.63
2023-05-07T02:25:19.984Z,2.92
2023-05-07T02:27:46.623Z,3.10
2023-05-07T02:30:15.048Z,2.92
2023-05-07T02:32:41.981Z,3.00
2023-05-07T02:35:09.262Z,2.45
2023-05-07T02:37:36.090Z,2.63
2023-05-07T02:40:04.461Z,2.65
2023-05-07T02:42:31.838Z,2.75
2023-05-07T02:44:58.502Z,2.78
2023-05-07T02:47:28.004Z,2.70
2023-05-07T02:49:56.012Z,2.38
2023-05-07T02:52:23.168Z,2.33
2023-05-07T02:54:49.989Z,2.30
2023-05-07T02:57:16.649Z,2.80
2023-05-07T02:59:43.877Z,2.28
2023-05-07T03:02:11.452Z,2.83
2023-05-07T03:04:38.207Z,2.90
2023-05-07T03:07:04.843Z,2.70
2023-05-07T03:09:31.452Z,2.80
2023-05-07T03:11:58.652Z,2.25
2023-05-07T03:14:25.320Z,2.83
2023-05-07T03:16:51.954Z,2.08
2023-05-07T03:19:18.637Z,2.17
2023-05-07T03:21:45.260Z,2.15
2023-05-07T03:24:11.806Z,2.08
2023-05-07T03:26:38.359Z,2.38
2023-05-07T03:29:05.371Z,2.80
2023-05-07T03:31:32.099Z,2.75
2023-05-07T03:34:01.484Z,2.88
2023-05-07T03:36:28.456Z,2.60
2023-05-07T03:38:56.435Z,2.33
2023-05-07T03:41:27.093Z,2.33
2023-05-07T03:43:54.182Z,2.72
2023-05-07T03:46:20.984Z,2.00
2023-05-07T03:48:47.911Z,1.80
2023-05-07T03:51:15.559Z,2.53
2023-05-07T03:53:42.698Z,2.30
2023-05-07T03:56:09.666Z,2.33
2023-05-07T03:58:39.259Z,2.58
2023-05-07T04:01:09.040Z,2.47
2023-05-07T04:03:36.196Z,2.25
2023-05-07T04:06:02.920Z,2.60
2023-05-07T04:08:31.660Z,2.35
2023-05-07T04:10:59.413Z,2.55
2023-05-07T04:13:30.921Z,2.63
2023-05-07T04:15:58.625Z,2.60
2023-05-07T04:18:26.752Z,1.92
2023-05-07T04:20:53.809Z,1.75
2023-05-07T04:23:22.022Z,2.00
2023-05-07T04:25:49.179Z,1.70
2023-05-07T04:28:24.627Z,2.05
2023-05-07T04:30:52.369Z,1.90
2023-05-07T04:33:20.341Z,1.48
2023-05-07T04:35:48.291Z,2.40
2023-05-07T04:38:15.777Z,2.55
2023-05-07T04:40:43.423Z,2.08
2023-05-07T04:43:14.248Z,2.17
2023-05-07T04:45:46.792Z,2.33
2023-05-07T04:48:15.591Z,2.33
2023-05-07T04:50:42.424Z,2.60
2023-05-07T04:53:09.534Z,2.67
2023-05-07T04:55:36.310Z,2.05
2023-05-07T04:58:04.180Z,2.28
2023-05-07T05:00:34.234Z,1.98
2023-05-07T05:03:03.821Z,1.88
2023-05-07T05:05:30.615Z,2.40
2023-05-07T05:07:57.929Z,2.30
2023-05-07T05:10:26.123Z,2.00
2023-05-07T05:12:52.832Z,1.92
2023-05-07T05:15:21.069Z,2.00
2023-05-07T05:17:47.710Z,2.13
2023-05-07T05:20:15.934Z,2.10
2023-05-07T05:22:43.309Z,1.98
2023-05-07T05:25:10.935Z,2.38
2023-05-07T05:27:37.951Z,2.15
2023-05-07T05:30:06.744Z,2.40
2023-05-07T05:32:34.724Z,2.25
2023-05-07T05:35:01.963Z,2.10
2023-05-07T05:37:31.160Z,2.35
2023-05-07T05:39:58.524Z,2.25
2023-05-07T05:42:27.068Z,1.90
2023-05-07T05:44:55.124Z,2.05
2023-05-07T05:47:23.680Z,1.90
2023-05-07T05:49:51.943Z,2.00
2023-05-07T05:52:18.556Z,1.67
2023-05-07T05:54:46.376Z,1.65
2023-05-07T05:57:13.415Z,1.80
2023-05-07T05:59:40.186Z,1.88
2023-05-07T06:02:07.638Z,1.88
2023-05-07T06:04:34.525Z,1.80
2023-05-07T06:07:01.255Z,1.77
2023-05-07T06:09:28.105Z,1.92
2023-05-07T06:11:55.138Z,1.90
2023-05-07T06:14:22.176Z,1.95
2023-05-07T06:16:49.176Z,1.90
2023-05-07T06:19:16.202Z,2.05
2023-05-07T06:21:42.958Z,1.85
2023-05-07T06:24:09.742Z,1.48
2023-05-07T06:26:38.207Z,1.70
2023-05-07T06:29:07.382Z,1.50
2023-05-07T06:31:34.623Z,1.15
2023-05-07T06:34:04.663Z,1.55
2023-05-07T06:36:35.467Z,1.30
2023-05-07T06:39:09.540Z,1.40
2023-05-07T06:41:36.909Z,1.35
2023-05-07T06:44:09.914Z,1.65
2023-05-07T06:46:44.816Z,1.60
2023-05-07T06:49:13.651Z,1.33
2023-05-07T06:51:40.704Z,1.60
2023-05-07T06:54:07.473Z,1.55
2023-05-07T06:56:36.927Z,1.50
2023-05-07T06:59:05.138Z,1.80
2023-05-07T07:01:36.155Z,2.10
2023-05-07T07:04:04.180Z,1.73
2023-05-07T07:06:32.939Z,1.77
2023-05-07T07:09:01.593Z,1.58
2023-05-07T07:11:28.955Z,1.60
2023-05-07T07:13:56.166Z,1.52
2023-05-07T07:16:23.362Z,1.50
2023-05-07T07:18:51.953Z,1.42
2023-05-07T07:21:20.211Z,1.58
2023-05-07T07:23:47.194Z,1.38
2023-05-07T07:26:14.354Z,1.50
2023-05-07T07:28:47.454Z,1.27
2023-05-07T07:31:18.084Z,1.50
2023-05-07T07:33:45.317Z,1.52
2023-05-07T07:36:12.222Z,1.50
2023-05-07T07:38:39.205Z,1.70
2023-05-07T07:41:06.258Z,1.50
2023-05-07T07:43:32.944Z,1.20
2023-05-07T07:46:00.103Z,1.50
2023-05-07T07:48:27.984Z,1.35
2023-05-07T07:50:55.070Z,1.88
2023-05-07T07:53:22.267Z,1.38
2023-05-07T07:55:49.323Z,1.52
2023-05-07T07:58:19.121Z,1.20
2023-05-07T08:00:46.206Z,1.10
2023-05-07T08:03:13.915Z,1.35
2023-05-07T08:05:45.122Z,1.20
2023-05-07T08:08:11.850Z,1.23
2023-05-07T08:10:40.278Z,0.90
2023-05-07T08:13:13.993Z,0.90
2023-05-07T08:15:42.329Z,0.98
2023-05-07T08:18:09.087Z,0.90
2023-05-07T08:20:40.332Z,1.23
2023-05-07T08:23:09.934Z,0.98
2023-05-07T08:25:38.410Z,1.30
2023-05-07T08:28:06.303Z,0.80
2023-05-07T08:30:33.843Z,0.95
2023-05-07T08:33:01.660Z,0.95
2023-05-07T08:35:29.213Z,0.80
2023-05-07T08:37:55.941Z,0.80
2023-05-07T08:40:27.333Z,0.93
2023-05-07T08:42:58.094Z,0.80
2023-05-07T08:45:26.024Z,0.80
2023-05-07T08:47:59.270Z,0.90
2023-05-07T08:50:30.476Z,0.77
2023-05-07T08:53:00.955Z,0.85
2023-05-07T08:55:29.871Z,0.77
2023-05-07T08:57:57.033Z,0.80
2023-05-07T09:00:24.083Z,0.73
2023-05-07T09:02:54.414Z,0.70
2023-05-07T09:05:21.576Z,0.90
2023-05-07T09:07:48.597Z,0.90
2023-05-07T09:10:15.764Z,0.60
2023-05-07T09:12:43.711Z,0.70
2023-05-07T09:15:13.323Z,1.02
2023-05-07T09:17:42.203Z,0.75
2023-05-07T09:20:10.845Z,0.73
2023-05-07T09:22:39.215Z,0.73
2023-05-07T09:25:10.713Z,0.70
2023-05-07T09:27:38.907Z,0.80
2023-05-07T09:30:08.020Z,0.80
2023-05-07T09:32:41.242Z,0.75
2023-05-07T09:35:18.041Z,0.80
2023-05-07T09:37:48.172Z,0.80
2023-05-07T09:40:23.564Z,0.80
2023-05-07T09:42:51.579Z,0.80
2023-05-07T09:45:29.702Z,0.98
2023-05-07T09:47:59.472Z,0.70
2023-05-07T09:50:33.656Z,0.70
2023-05-07T09:53:01.722Z,0.85
2023-05-07T09:55:28.944Z,0.93
2023-05-07T09:57:56.803Z,1.63
2023-05-07T10:00:25.466Z,4.90
2023-05-07T10:03:02.523Z,2.70
2023-05-07T10:05:38.493Z,1.10
2023-05-07T10:08:05.937Z,0.73
2023-05-07T10:10:35.963Z,1.05
2023-05-07T10:13:06.876Z,1.42
2023-05-07T10:15:35.663Z,0.70
2023-05-07T10:18:05.437Z,2.08
2023-05-07T10:20:34.204Z,0.80
2023-05-07T10:23:05.066Z,0.90
2023-05-07T10:25:37.278Z,0.80
2023-05-07T10:28:12.085Z,1.08
2023-05-07T10:31:05.779Z,1.05
2023-05-07T10:33:41.389Z,0.90
2023-05-07T10:36:08.996Z,1.35
2023-05-07T10:38:36.312Z,3.50
2023-05-07T10:41:05.688Z,2.15
2023-05-07T10:43:45.526Z,0.77
2023-05-07T10:46:23.210Z,1.00
2023-05-07T10:49:07.162Z,1.00
2023-05-07T10:52:28.974Z,1.25
2023-05-07T10:55:18.631Z,0.82
2023-05-07T10:57:52.309Z,0.80
2023-05-07T11:03:02.626Z,0.70
2023-05-07T11:05:38.255Z,0.88
2023-05-07T11:08:16.181Z,0.60
2023-05-07T11:10:53.737Z,0.85
2023-05-07T11:13:50.325Z,0.90
2023-05-07T11:16:37.897Z,0.98
2023-05-07T11:19:54.348Z,1.00
2023-05-07T11:22:40.654Z,0.80
2023-05-07T11:25:39.691Z,0.90
2023-05-07T11:28:16.470Z,0.68
2023-05-07T11:30:49.349Z,0.75
2023-05-07T11:33:19.736Z,0.80
2023-05-07T11:35:48.320Z,0.80
2023-05-07T11:38:19.313Z,1.00
2023-05-07T11:40:54.051Z,0.93
2023-05-07T11:43:20.775Z,0.75
2023-05-07T11:45:48.270Z,1.10
2023-05-07T11:48:16.166Z,1.25
2023-05-07T11:51:00.772Z,0.60
2023-05-07T11:53:28.958Z,0.93
2023-05-07T11:55:58.580Z,0.98
2023-05-07T11:58:29.057Z,0.90
2023-05-07T12:00:56.037Z,0.70
2023-05-07T12:03:22.910Z,0.70
2023-05-07T12:05:49.959Z,0.80
2023-05-07T12:08:17.750Z,0.75
2023-05-07T12:10:51.362Z,0.82
2023-05-07T12:13:23.222Z,0.85
2023-05-07T12:15:57.088Z,1.05
2023-05-07T12:18:24.575Z,1.00
2023-05-07T12:20:51.708Z,0.82
2023-05-07T12:23:19.273Z,1.10
2023-05-07T12:25:48.810Z,0.70
2023-05-07T12:28:17.223Z,1.02
2023-05-07T12:30:45.521Z,0.55
2023-05-07T12:33:12.542Z,0.85
2023-05-07T12:35:41.732Z,0.65
2023-05-07T12:38:13.303Z,0.63
2023-05-07T12:40:46.133Z,1.23
2023-05-07T12:43:26.782Z,1.30
2023-05-07T12:48:23.308Z,0.98
2023-05-07T12:50:51.749Z,0.90
2023-05-07T12:53:22.770Z,0.93
2023-05-07T12:55:51.398Z,1.00
2023-05-07T12:58:22.763Z,0.95
2023-05-07T13:00:51.059Z,0.73
2023-05-07T13:03:32.785Z,0.75
2023-05-07T13:06:11.034Z,0.70
2023-05-07T13:08:41.694Z,0.93
2023-05-07T13:11:09.551Z,0.88
2023-05-07T13:13:38.434Z,0.82
2023-05-07T13:16:07.285Z,0.90
2023-05-07T13:18:34.873Z,1.00
2023-05-07T13:21:02.214Z,1.00
2023-05-07T13:23:29.385Z,0.80
2023-05-07T13:25:56.863Z,0.82
2023-05-07T13:28:27.244Z,1.13
2023-05-07T13:30:55.783Z,0.98
2023-05-07T13:33:22.572Z,0.80
2023-05-07T13:35:49.353Z,0.90
2023-05-07T13:38:16.991Z,0.90
2023-05-07T13:40:43.874Z,1.00
2023-05-07T13:43:11.569Z,1.00
2023-05-07T13:45:39.006Z,0.80
2023-05-07T13:48:05.852Z,1.08
2023-05-07T13:50:32.570Z,0.77
2023-05-07T13:52:59.135Z,1.20
2023-05-07T13:55:26.234Z,0.98
2023-05-07T13:58:07.093Z,1.00
2023-05-07T14:00:33.936Z,0.93
2023-05-07T14:03:00.807Z,0.90
2023-05-07T14:05:30.617Z,1.00
2023-05-07T14:07:58.772Z,0.90
2023-05-07T14:10:26.044Z,1.10
2023-05-07T14:12:53.710Z,0.77
2023-05-07T14:15:20.376Z,1.00
2023-05-07T14:17:47.866Z,0.82
2023-05-07T14:20:15.100Z,1.05
2023-05-07T14:22:42.067Z,0.90
2023-05-07T14:25:10.578Z,0.80
2023-05-07T14:27:37.744Z,0.80
2023-05-07T14:30:04.955Z,1.13
2023-05-07T14:32:31.695Z,0.70
2023-05-07T14:34:58.404Z,1.00
2023-05-07T14:37:25.283Z,0.98
2023-05-07T14:39:52.056Z,0.70
2023-05-07T14:42:19.002Z,0.68
2023-05-07T14:44:49.290Z,0.80
2023-05-07T14:47:18.307Z,0.65
2023-05-07T14:49:46.451Z,0.77
2023-05-07T14:52:13.071Z,0.52
2023-05-07T14:54:39.752Z,0.80
2023-05-07T14:57:08.005Z,0.90
2023-05-07T14:59:35.052Z,0.77
2023-05-07T15:02:04.536Z,0.70
2023-05-07T15:04:32.870Z,0.70
2023-05-07T15:06:59.439Z,0.90
2023-05-07T15:09:26.576Z,0.73
2023-05-07T15:11:53.471Z,1.20
2023-05-07T15:14:20.823Z,1.00
2023-05-07T15:16:47.733Z,1.05
2023-05-07T15:19:15.975Z,0.93
2023-05-07T15:21:42.676Z,0.82
2023-05-07T15:24:10.445Z,0.90
2023-05-07T15:26:37.284Z,0.85
2023-05-07T15:29:09.053Z,1.00
2023-05-07T15:31:35.983Z,1.00
2023-05-07T15:34:02.664Z,1.00
2023-05-07T15:36:29.638Z,0.93
2023-05-07T15:38:56.212Z,0.85
2023-05-07T15:41:23.025Z,1.20
2023-05-07T15:43:52.365Z,0.80
2023-05-07T15:46:20.440Z,1.17
2023-05-07T15:48:47.385Z,1.52
2023-05-07T15:51:14.108Z,0.70
2023-05-07T15:53:41.162Z,1.00
2023-05-07T15:56:08.383Z,0.88
2023-05-07T15:58:36.453Z,1.30
2023-05-07T16:01:04.117Z,0.98
2023-05-07T16:03:31.894Z,1.15
2023-05-07T16:06:00.739Z,0.70
2023-05-07T16:08:28.007Z,1.05
2023-05-07T16:10:55.399Z,1.20
2023-05-07T16:13:24.680Z,1.00
2023-05-07T16:15:57.430Z,1.15
2023-05-07T16:18:24.012Z,1.05
2023-05-07T16:20:51.167Z,1.25
2023-05-07T16:23:18.113Z,1.10
2023-05-07T16:25:44.709Z,1.10
2023-05-07T16:28:11.508Z,0.98
2023-05-07T16:30:38.179Z,1.10
2023-05-07T16:33:04.761Z,1.27
2023-05-07T16:35:31.639Z,1.02
2023-05-07T16:37:58.350Z,1.17
2023-05-07T16:40:25.579Z,1.08
2023-05-07T16:42:54.786Z,1.00
2023-05-07T16:45:23.237Z,1.00
2023-05-07T16:47:49.989Z,1.20
2023-05-07T16:50:16.667Z,1.00
2023-05-07T16:52:43.221Z,0.77
2023-05-07T16:55:10.048Z,1.00
2023-05-07T16:57:36.763Z,1.10
2023-05-07T17:00:07.229Z,1.00
2023-05-07T17:02:35.604Z,1.20
2023-05-07T17:05:02.379Z,0.80
2023-05-07T17:07:28.965Z,1.15
2023-05-07T17:09:55.751Z,1.17
2023-05-07T17:12:22.937Z,0.70
2023-05-07T17:14:49.743Z,1.42
2023-05-07T17:17:16.351Z,1.20
2023-05-07T17:19:44.026Z,1.30
2023-05-07T17:22:10.588Z,1.85
2023-05-07T17:24:37.387Z,1.70
2023-05-07T17:27:04.036Z,1.13
2023-05-07T17:29:30.953Z,1.50
2023-05-07T17:31:57.557Z,1.27
2023-05-07T17:34:24.302Z,1.20
2023-05-07T17:36:51.031Z,0.90
2023-05-07T17:39:17.555Z,1.02
2023-05-07T17:41:44.121Z,0.82
2023-05-07T17:44:11.050Z,1.10
2023-05-07T17:46:37.636Z,1.63
2023-05-07T17:49:04.238Z,1.20
2023-05-07T17:51:36.243Z,1.10
2023-05-07T17:54:12.742Z,1.30
2023-05-07T17:56:40.337Z,1.10
2023-05-07T17:59:06.973Z,0.95
2023-05-07T18:01:34.435Z,0.70
2023-05-07T18:04:02.792Z,0.55
2023-05-07T18:06:29.733Z,0.90
2023-05-07T18:08:56.879Z,0.88
2023-05-07T18:11:24.378Z,0.90
2023-05-07T18:13:51.202Z,0.70
2023-05-07T18:16:19.284Z,0.95
2023-05-07T18:18:46.947Z,1.23
2023-05-07T18:21:18.617Z,1.10
2023-05-07T18:23:46.047Z,1.00
2023-05-07T18:26:12.732Z,1.30
2023-05-07T18:28:39.501Z,1.00
2023-05-07T18:31:06.107Z,1.48
2023-05-07T18:33:32.823Z,1.30
2023-05-07T18:35:59.657Z,1.38
2023-05-07T18:38:26.182Z,0.90
2023-05-07T18:40:52.885Z,1.20
2023-05-07T18:43:19.536Z,1.20
2023-05-07T18:45:49.508Z,1.00
2023-05-07T18:48:16.901Z,1.20
2023-05-07T18:50:43.925Z,1.05
2023-05-07T18:53:11.184Z,1.40
2023-05-07T18:55:37.928Z,1.27
2023-05-07T18:58:04.655Z,1.38
2023-05-07T19:00:31.319Z,1.35
2023-05-07T19:02:57.923Z,1.30
2023-05-07T19:05:24.852Z,1.48
2023-05-07T19:07:51.542Z,1.20
2023-05-07T19:10:18.378Z,1.23
2023-05-07T19:12:45.056Z,1.40
2023-05-07T19:15:11.733Z,1.30
2023-05-07T19:17:38.539Z,1.35
2023-05-07T19:22:37.139Z,1.58
2023-05-07T19:25:04.220Z,1.40
2023-05-07T19:27:30.730Z,1.88
2023-05-07T19:29:57.731Z,1.60
2023-05-07T19:32:24.364Z,1.95
2023-05-07T19:34:51.121Z,1.80
2023-05-07T19:37:18.314Z,1.70
2023-05-07T19:39:44.980Z,1.98
2023-05-07T19:42:11.705Z,2.03
2023-05-07T19:44:38.376Z,1.75
2023-05-07T19:47:05.922Z,1.77
2023-05-07T19:49:32.712Z,1.58
2023-05-07T19:51:59.363Z,1.30
2023-05-07T19:54:26.238Z,1.40
2023-05-07T19:56:52.893Z,1.30
2023-05-07T19:59:19.461Z,1.58
2023-05-07T20:01:46.090Z,1.40
2023-05-07T20:04:12.930Z,1.40
2023-05-07T20:06:39.496Z,1.48
2023-05-07T20:09:07.491Z,1.70
2023-05-07T20:11:34.070Z,1.48
2023-05-07T20:14:00.766Z,1.50
2023-05-07T20:16:27.411Z,1.40
2023-05-07T20:18:53.951Z,1.15
2023-05-07T20:21:20.751Z,1.38
2023-05-07T20:23:47.315Z,1.20
2023-05-07T20:26:13.890Z,1.40
2023-05-07T20:28:40.655Z,1.95
2023-05-07T20:31:07.672Z,1.70
2023-05-07T20:33:34.381Z,1.50
2023-05-07T20:36:00.920Z,2.00
2023-05-07T20:38:27.658Z,1.60
2023-05-07T20:40:54.240Z,1.90
2023-05-07T20:43:21.612Z,1.63
2023-05-07T20:45:48.416Z,1.90
2023-05-07T20:48:15.100Z,1.90
2023-05-07T20:50:41.813Z,1.63
2023-05-07T20:53:08.537Z,1.67
2023-05-07T20:55:35.108Z,1.63
2023-05-07T20:58:01.630Z,2.00
2023-05-07T21:00:28.381Z,1.90
2023-05-07T21:02:54.945Z,1.75
2023-05-07T21:05:21.771Z,1.90
2023-05-07T21:07:48.286Z,1.52
2023-05-07T21:10:15.132Z,1.67
2023-05-07T21:12:42.036Z,1.60
2023-05-07T21:15:09.419Z,1.70
2023-05-07T21:17:36.954Z,1.80
2023-05-07T21:20:04.111Z,2.00
2023-05-07T21:22:31.150Z,1.63
2023-05-07T21:24:57.731Z,1.80
2023-05-07T21:27:24.428Z,2.28
2023-05-07T21:29:51.134Z,1.35
2023-05-07T21:32:17.979Z,2.10
2023-05-07T21:34:44.589Z,2.28
2023-05-07T21:37:11.285Z,1.90
2023-05-07T21:39:37.838Z,1.90
2023-05-07T21:42:04.477Z,1.98
2023-05-07T21:44:31.658Z,2.25
2023-05-07T21:46:58.492Z,2.00
2023-05-07T21:49:25.187Z,2.13
2023-05-07T21:51:51.775Z,1.67
2023-05-07T21:54:18.347Z,1.92
2023-05-07T21:56:45.544Z,1.98
2023-05-07T21:59:12.236Z,2.22
2023-05-07T22:01:38.899Z,2.40
2023-05-07T22:04:05.713Z,1.85
2023-05-07T22:06:32.349Z,1.98
2023-05-07T22:08:58.926Z,2.10
2023-05-07T22:11:26.281Z,1.83
2023-05-07T22:13:52.847Z,2.00
2023-05-07T22:16:19.494Z,1.80
2023-05-07T22:18:46.168Z,2.58
2023-05-07T22:21:12.831Z,2.20
2023-05-07T22:23:39.494Z,2.88
2023-05-07T22:26:13.591Z,2.53
2023-05-07T22:28:40.606Z,2.70
2023-05-07T22:31:07.523Z,2.83
2023-05-07T22:33:34.226Z,3.20
2023-05-07T22:36:01.168Z,3.08
2023-05-07T22:38:27.675Z,2.78
2023-05-07T22:40:54.520Z,3.13
2023-05-07T22:43:21.145Z,2.97
2023-05-07T22:45:47.752Z,3.22
2023-05-07T22:48:14.306Z,3.10
2023-05-07T22:50:41.272Z,3.30
2023-05-07T22:53:07.860Z,2.80
2023-05-07T22:55:34.896Z,2.60
2023-05-07T22:58:01.555Z,2.67
2023-05-07T23:00:28.235Z,2.80
2023-05-07T23:02:54.931Z,2.55
2023-05-07T23:05:22.764Z,3.10
2023-05-07T23:07:49.309Z,2.75
2023-05-07T23:10:16.031Z,2.65
2023-05-07T23:12:43.864Z,2.17
2023-05-07T23:15:11.120Z,2.72
2023-05-07T23:17:37.874Z,2.30
2023-05-07T23:20:04.798Z,2.30
2023-05-07T23:22:31.663Z,2.10
2023-05-07T23:24:58.364Z,2.03
2023-05-07T23:27:25.039Z,2.15
2023-05-07T23:29:51.734Z,2.13
2023-05-07T23:32:18.394Z,1.95
2023-05-07T23:34:49.952Z,1.98
2023-05-07T23:39:42.950Z,1.95
2023-05-07T23:42:10.312Z,1.90
2023-05-07T23:44:36.954Z,2.25
2023-05-07T23:47:03.597Z,2.42
2023-05-07T23:49:30.229Z,2.25
2023-05-07T23:51:56.768Z,2.25
2023-05-07T23:54:23.398Z,2.40
2023-05-07T23:56:50.122Z,2.00
2023-05-07T23:59:16.659Z,2.40
